Beiseker, Canada
Current Conditions -  °F | °C
As of 7:00 PM on Saturday 20 Dec 2014 (Local Time) from CYYC Reporting Station
Few Clouds Few Clouds  
Wind Chill: 25°   Ceiling: Unl
Heat Index: 30°   Visibility: 15mi
Dew Point: 19°   Wind: 5mph
Humidity: 64%   Direction: 150°SSE
Pressure: 29.44"   Gusts: NA
Location:  51.38°N, 113.53°W
Report Text: CYYC 210200Z 15004KT 15SM FEW160 M01/M07 A2944 RMK AC1 SLP008
Loading
Personal Weather Stations






























Interactive Weather Map New forecast layout! Learn more

10-Day Weather Forecast

Advertisements
Track Severe Weather on mobile